sensor_id;sensor_type;location;lat;lon;timestamp;pressure;altitude;pressure_sealevel;temperature;humidity
9855;BME280;4966;48.112;9.282;2023-07-28T00:01:32;94160.44;;;14.83;80.60
9855;BME280;4966;48.112;9.282;2023-07-28T00:03:57;94158.88;;;14.82;80.02
9855;BME280;4966;48.112;9.282;2023-07-28T00:06:23;94163.41;;;14.64;80.62
9855;BME280;4966;48.112;9.282;2023-07-28T00:08:48;94167.50;;;14.47;81.55
9855;BME280;4966;48.112;9.282;2023-07-28T00:11:14;94172.84;;;14.36;82.82
9855;BME280;4966;48.112;9.282;2023-07-28T00:13:40;94163.34;;;14.26;83.84
9855;BME280;4966;48.112;9.282;2023-07-28T00:16:06;94163.97;;;14.46;83.61
9855;BME280;4966;48.112;9.282;2023-07-28T00:18:32;94160.50;;;14.53;82.63
9855;BME280;4966;48.112;9.282;2023-07-28T00:20:57;94162.72;;;14.40;83.19
9855;BME280;4966;48.112;9.282;2023-07-28T00:23:22;94159.56;;;14.35;83.48
9855;BME280;4966;48.112;9.282;2023-07-28T00:25:48;94161.53;;;14.38;82.44
9855;BME280;4966;48.112;9.282;2023-07-28T00:28:13;94160.34;;;14.39;82.10
9855;BME280;4966;48.112;9.282;2023-07-28T00:30:39;94152.00;;;14.24;83.35
9855;BME280;4966;48.112;9.282;2023-07-28T00:33:05;94150.28;;;14.09;84.60
9855;BME280;4966;48.112;9.282;2023-07-28T00:35:30;94164.81;;;14.17;84.43
9855;BME280;4966;48.112;9.282;2023-07-28T00:37:55;94162.06;;;14.13;84.63
9855;BME280;4966;48.112;9.282;2023-07-28T00:40:21;94159.75;;;14.19;84.56
9855;BME280;4966;48.112;9.282;2023-07-28T00:42:47;94155.28;;;14.37;83.35
9855;BME280;4966;48.112;9.282;2023-07-28T00:45:13;94151.44;;;14.08;85.30
9855;BME280;4966;48.112;9.282;2023-07-28T00:47:38;94157.38;;;14.17;84.72
9855;BME280;4966;48.112;9.282;2023-07-28T00:50:04;94157.53;;;14.28;83.36
9855;BME280;4966;48.112;9.282;2023-07-28T00:52:30;94158.97;;;14.18;84.14
9855;BME280;4966;48.112;9.282;2023-07-28T00:54:55;94158.63;;;14.23;83.85
9855;BME280;4966;48.112;9.282;2023-07-28T00:57:20;94154.19;;;14.08;84.59
9855;BME280;4966;48.112;9.282;2023-07-28T00:59:46;94148.72;;;14.12;84.48
9855;BME280;4966;48.112;9.282;2023-07-28T01:02:12;94148.22;;;14.02;84.92
9855;BME280;4966;48.112;9.282;2023-07-28T01:04:38;94134.63;;;14.06;85.15
9855;BME280;4966;48.112;9.282;2023-07-28T01:07:30;94136.16;;;14.03;86.20
9855;BME280;4966;48.112;9.282;2023-07-28T01:12:26;94137.53;;;14.24;83.86
9855;BME280;4966;48.112;9.282;2023-07-28T01:14:51;94127.63;;;14.12;83.83
9855;BME280;4966;48.112;9.282;2023-07-28T01:17:17;94127.19;;;14.07;83.95
9855;BME280;4966;48.112;9.282;2023-07-28T01:19:43;94123.06;;;14.23;81.79
9855;BME280;4966;48.112;9.282;2023-07-28T01:27:28;94115.47;;;14.06;82.26
9855;BME280;4966;48.112;9.282;2023-07-28T01:29:54;94118.47;;;13.94;83.39
9855;BME280;4966;48.112;9.282;2023-07-28T01:32:20;94107.22;;;14.02;83.46
9855;BME280;4966;48.112;9.282;2023-07-28T01:34:45;94113.06;;;14.01;83.22
9855;BME280;4966;48.112;9.282;2023-07-28T01:37:10;94113.72;;;13.91;83.39
9855;BME280;4966;48.112;9.282;2023-07-28T01:39:36;94117.97;;;13.85;83.50
9855;BME280;4966;48.112;9.282;2023-07-28T01:42:01;94122.56;;;13.77;84.48
9855;BME280;4966;48.112;9.282;2023-07-28T01:44:26;94116.78;;;13.86;83.76
9855;BME280;4966;48.112;9.282;2023-07-28T01:46:52;94119.84;;;13.80;84.17
9855;BME280;4966;48.112;9.282;2023-07-28T01:49:17;94121.81;;;13.80;84.22
9855;BME280;4966;48.112;9.282;2023-07-28T01:51:42;94123.56;;;13.65;85.79
9855;BME280;4966;48.112;9.282;2023-07-28T01:54:08;94118.13;;;13.69;85.91
9855;BME280;4966;48.112;9.282;2023-07-28T01:56:33;94116.28;;;13.76;85.00
9855;BME280;4966;48.112;9.282;2023-07-28T01:58:58;94116.84;;;13.89;84.30
9855;BME280;4966;48.112;9.282;2023-07-28T02:01:23;94122.25;;;13.86;84.07
9855;BME280;4966;48.112;9.282;2023-07-28T02:03:49;94127.34;;;13.87;84.17
9855;BME280;4966;48.112;9.282;2023-07-28T02:06:14;94129.22;;;13.79;85.42
9855;BME280;4966;48.112;9.282;2023-07-28T02:08:39;94128.91;;;13.85;86.16
9855;BME280;4966;48.112;9.282;2023-07-28T02:11:05;94138.56;;;14.12;83.74
9855;BME280;4966;48.112;9.282;2023-07-28T02:13:30;94132.03;;;14.20;82.14
9855;BME280;4966;48.112;9.282;2023-07-28T02:15:55;94137.94;;;14.22;81.72
9855;BME280;4966;48.112;9.282;2023-07-28T02:18:21;94142.50;;;14.15;82.04
9855;BME280;4966;48.112;9.282;2023-07-28T02:20:49;94146.25;;;13.99;82.46
9855;BME280;4966;48.112;9.282;2023-07-28T02:23:14;94150.44;;;13.90;82.78
9855;BME280;4966;48.112;9.282;2023-07-28T02:25:40;94147.38;;;13.65;84.76
9855;BME280;4966;48.112;9.282;2023-07-28T02:28:07;94141.69;;;13.77;83.84
9855;BME280;4966;48.112;9.282;2023-07-28T02:30:32;94147.03;;;14.00;82.72
9855;BME280;4966;48.112;9.282;2023-07-28T02:32:57;94153.63;;;13.95;82.84
9855;BME280;4966;48.112;9.282;2023-07-28T02:35:22;94152.00;;;13.91;83.09
9855;BME280;4966;48.112;9.282;2023-07-28T02:37:48;94158.34;;;13.68;84.81
9855;BME280;4966;48.112;9.282;2023-07-28T02:40:13;94160.09;;;13.83;84.20
9855;BME280;4966;48.112;9.282;2023-07-28T02:42:39;94167.34;;;13.99;83.37
9855;BME280;4966;48.112;9.282;2023-07-28T02:45:04;94166.50;;;13.95;83.22
9855;BME280;4966;48.112;9.282;2023-07-28T02:47:30;94169.81;;;13.77;83.81
9855;BME280;4966;48.112;9.282;2023-07-28T02:49:57;94166.47;;;13.61;84.81
9855;BME280;4966;48.112;9.282;2023-07-28T02:52:22;94170.81;;;13.66;84.89
9855;BME280;4966;48.112;9.282;2023-07-28T02:54:47;94173.47;;;13.58;86.21
9855;BME280;4966;48.112;9.282;2023-07-28T02:57:13;94181.16;;;13.79;84.80
9855;BME280;4966;48.112;9.282;2023-07-28T02:59:38;94176.22;;;13.89;83.76
9855;BME280;4966;48.112;9.282;2023-07-28T03:02:03;94179.88;;;13.70;84.25
9855;BME280;4966;48.112;9.282;2023-07-28T03:04:29;94185.28;;;13.66;84.51
9855;BME280;4966;48.112;9.282;2023-07-28T03:06:54;94188.44;;;13.68;84.37
9855;BME280;4966;48.112;9.282;2023-07-28T03:09:19;94191.63;;;13.74;84.19
9855;BME280;4966;48.112;9.282;2023-07-28T03:11:45;94190.41;;;13.71;82.98
9855;BME280;4966;48.112;9.282;2023-07-28T03:14:10;94198.31;;;13.50;83.96
9855;BME280;4966;48.112;9.282;2023-07-28T03:16:38;94199.41;;;13.45;84.82
9855;BME280;4966;48.112;9.282;2023-07-28T03:19:03;94196.53;;;13.61;84.86
9855;BME280;4966;48.112;9.282;2023-07-28T03:21:30;94207.09;;;13.63;85.07
9855;BME280;4966;48.112;9.282;2023-07-28T03:23:56;94200.53;;;13.67;84.14
9855;BME280;4966;48.112;9.282;2023-07-28T03:26:21;94213.28;;;13.59;84.64
9855;BME280;4966;48.112;9.282;2023-07-28T03:28:47;94219.50;;;13.56;85.93
9855;BME280;4966;48.112;9.282;2023-07-28T03:31:12;94217.81;;;13.75;86.10
9855;BME280;4966;48.112;9.282;2023-07-28T03:33:37;94208.50;;;14.10;84.10
9855;BME280;4966;48.112;9.282;2023-07-28T03:36:03;94213.69;;;14.18;83.52
9855;BME280;4966;48.112;9.282;2023-07-28T03:38:28;94214.47;;;14.19;84.33
9855;BME280;4966;48.112;9.282;2023-07-28T03:40:53;94222.66;;;14.49;82.49
9855;BME280;4966;48.112;9.282;2023-07-28T03:43:19;94218.06;;;14.57;81.78
9855;BME280;4966;48.112;9.282;2023-07-28T03:45:45;94214.22;;;14.61;81.81
9855;BME280;4966;48.112;9.282;2023-07-28T03:48:10;94218.16;;;14.64;82.40
9855;BME280;4966;48.112;9.282;2023-07-28T03:50:36;94214.31;;;14.72;82.33
9855;BME280;4966;48.112;9.282;2023-07-28T03:53:01;94208.63;;;14.92;81.51
9855;BME280;4966;48.112;9.282;2023-07-28T03:55:26;94210.03;;;14.75;82.69
9855;BME280;4966;48.112;9.282;2023-07-28T03:57:52;94202.09;;;14.62;83.51
9855;BME280;4966;48.112;9.282;2023-07-28T04:00:17;94211.50;;;14.65;83.16
9855;BME280;4966;48.112;9.282;2023-07-28T04:02:43;94209.97;;;14.67;83.33
9855;BME280;4966;48.112;9.282;2023-07-28T04:05:09;94203.41;;;14.76;81.76
9855;BME280;4966;48.112;9.282;2023-07-28T04:07:34;94204.66;;;14.85;80.37
9855;BME280;4966;48.112;9.282;2023-07-28T04:10:00;94216.88;;;14.54;81.77
9855;BME280;4966;48.112;9.282;2023-07-28T04:12:25;94215.91;;;14.43;82.49
9855;BME280;4966;48.112;9.282;2023-07-28T04:14:50;94224.13;;;14.43;83.23
9855;BME280;4966;48.112;9.282;2023-07-28T04:17:16;94221.81;;;14.45;82.89
9855;BME280;4966;48.112;9.282;2023-07-28T04:19:41;94215.69;;;14.55;82.66
9855;BME280;4966;48.112;9.282;2023-07-28T04:22:06;94216.94;;;14.61;81.76
9855;BME280;4966;48.112;9.282;2023-07-28T04:24:31;94219.06;;;14.41;82.88
9855;BME280;4966;48.112;9.282;2023-07-28T04:26:57;94210.03;;;14.41;83.48
9855;BME280;4966;48.112;9.282;2023-07-28T04:29:23;94212.81;;;14.44;83.95
9855;BME280;4966;48.112;9.282;2023-07-28T04:31:48;94215.09;;;14.39;84.42
9855;BME280;4966;48.112;9.282;2023-07-28T04:34:13;94212.91;;;14.52;83.50
9855;BME280;4966;48.112;9.282;2023-07-28T04:36:39;94205.56;;;14.56;83.28
9855;BME280;4966;48.112;9.282;2023-07-28T04:39:04;94206.75;;;14.58;83.29
9855;BME280;4966;48.112;9.282;2023-07-28T04:41:29;94214.47;;;14.53;83.46
9855;BME280;4966;48.112;9.282;2023-07-28T04:43:55;94209.06;;;14.56;83.21
9855;BME280;4966;48.112;9.282;2023-07-28T04:46:21;94203.06;;;14.81;82.37
9855;BME280;4966;48.112;9.282;2023-07-28T04:48:46;94208.69;;;14.99;81.13
9855;BME280;4966;48.112;9.282;2023-07-28T04:51:11;94207.50;;;14.96;81.07
9855;BME280;4966;48.112;9.282;2023-07-28T04:53:37;94203.50;;;14.53;84.18
9855;BME280;4966;48.112;9.282;2023-07-28T04:56:02;94206.56;;;14.78;83.71
9855;BME280;4966;48.112;9.282;2023-07-28T04:58:28;94207.50;;;14.96;83.88
9855;BME280;4966;48.112;9.282;2023-07-28T05:00:54;94207.69;;;15.18;84.64
9855;BME280;4966;48.112;9.282;2023-07-28T05:03:19;94205.94;;;15.43;83.84
9855;BME280;4966;48.112;9.282;2023-07-28T05:05:44;94207.28;;;15.64;82.41
9855;BME280;4966;48.112;9.282;2023-07-28T05:08:10;94212.91;;;15.85;80.88
9855;BME280;4966;48.112;9.282;2023-07-28T05:10:36;94222.47;;;16.09;78.84
9855;BME280;4966;48.112;9.282;2023-07-28T05:13:01;94219.00;;;16.30;77.64
9855;BME280;4966;48.112;9.282;2023-07-28T05:15:29;94224.59;;;16.48;77.23
9855;BME280;4966;48.112;9.282;2023-07-28T05:17:54;94214.81;;;16.65;76.52
9855;BME280;4966;48.112;9.282;2023-07-28T05:20:19;94220.00;;;16.85;76.17
9855;BME280;4966;48.112;9.282;2023-07-28T05:22:45;94230.59;;;16.90;76.81
9855;BME280;4966;48.112;9.282;2023-07-28T05:25:10;94236.53;;;17.13;76.00
9855;BME280;4966;48.112;9.282;2023-07-28T05:27:36;94239.72;;;17.37;76.11
9855;BME280;4966;48.112;9.282;2023-07-28T05:30:01;94216.13;;;17.64;74.92
9855;BME280;4966;48.112;9.282;2023-07-28T05:32:26;94223.56;;;18.11;73.58
9855;BME280;4966;48.112;9.282;2023-07-28T05:34:52;94229.41;;;18.27;74.92
9855;BME280;4966;48.112;9.282;2023-07-28T05:37:17;94226.16;;;18.50;73.59
9855;BME280;4966;48.112;9.282;2023-07-28T05:39:42;94225.06;;;18.26;74.80
9855;BME280;4966;48.112;9.282;2023-07-28T05:42:09;94225.84;;;18.30;75.07
9855;BME280;4966;48.112;9.282;2023-07-28T05:44:34;94225.41;;;18.42;74.78
9855;BME280;4966;48.112;9.282;2023-07-28T05:47:00;94236.78;;;18.59;74.38
9855;BME280;4966;48.112;9.282;2023-07-28T05:49:25;94233.91;;;18.87;72.91
9855;BME280;4966;48.112;9.282;2023-07-28T05:51:50;94234.75;;;18.77;73.37
9855;BME280;4966;48.112;9.282;2023-07-28T05:54:16;94236.25;;;18.92;72.71
9855;BME280;4966;48.112;9.282;2023-07-28T05:56:42;94227.88;;;19.07;72.07
9855;BME280;4966;48.112;9.282;2023-07-28T05:59:07;94229.31;;;19.29;70.80
9855;BME280;4966;48.112;9.282;2023-07-28T06:01:33;94223.47;;;19.20;72.68
9855;BME280;4966;48.112;9.282;2023-07-28T06:03:58;94235.69;;;18.27;78.42
9855;BME280;4966;48.112;9.282;2023-07-28T06:06:25;94246.84;;;19.01;73.94
9855;BME280;4966;48.112;9.282;2023-07-28T06:08:51;94244.72;;;19.23;74.07
9855;BME280;4966;48.112;9.282;2023-07-28T06:11:16;94260.41;;;19.33;73.59
9855;BME280;4966;48.112;9.282;2023-07-28T06:13:41;94249.09;;;19.17;72.27
9855;BME280;4966;48.112;9.282;2023-07-28T06:16:07;94244.19;;;19.43;71.60
9855;BME280;4966;48.112;9.282;2023-07-28T06:18:32;94249.16;;;19.66;71.36
9855;BME280;4966;48.112;9.282;2023-07-28T06:20:57;94243.41;;;19.94;71.07
9855;BME280;4966;48.112;9.282;2023-07-28T06:23:22;94243.47;;;19.87;72.27
9855;BME280;4966;48.112;9.282;2023-07-28T06:25:49;94233.16;;;19.95;71.09
9855;BME280;4966;48.112;9.282;2023-07-28T06:28:14;94239.25;;;20.13;72.59
9855;BME280;4966;48.112;9.282;2023-07-28T06:30:39;94246.06;;;20.05;73.09
9855;BME280;4966;48.112;9.282;2023-07-28T06:33:08;94245.50;;;20.21;72.22
9855;BME280;4966;48.112;9.282;2023-07-28T06:35:34;94248.00;;;20.46;70.26
9855;BME280;4966;48.112;9.282;2023-07-28T06:38:00;94251.38;;;20.27;70.85
9855;BME280;4966;48.112;9.282;2023-07-28T06:40:26;94253.66;;;20.35;71.73
9855;BME280;4966;48.112;9.282;2023-07-28T06:42:51;94262.63;;;20.43;71.64
9855;BME280;4966;48.112;9.282;2023-07-28T06:45:17;94259.03;;;20.46;72.01
9855;BME280;4966;48.112;9.282;2023-07-28T06:47:42;94262.06;;;20.63;70.61
9855;BME280;4966;48.112;9.282;2023-07-28T06:50:08;94253.59;;;20.77;69.91
9855;BME280;4966;48.112;9.282;2023-07-28T06:52:34;94256.16;;;20.60;70.38
9855;BME280;4966;48.112;9.282;2023-07-28T06:54:59;94260.53;;;20.54;71.25
9855;BME280;4966;48.112;9.282;2023-07-28T06:57:24;94255.09;;;20.47;73.65
9855;BME280;4966;48.112;9.282;2023-07-28T06:59:50;94258.16;;;20.56;73.51
9855;BME280;4966;48.112;9.282;2023-07-28T07:02:16;94255.69;;;20.66;73.54
9855;BME280;4966;48.112;9.282;2023-07-28T07:04:41;94262.75;;;20.70;74.54
9855;BME280;4966;48.112;9.282;2023-07-28T07:07:07;94273.69;;;20.81;74.23
9855;BME280;4966;48.112;9.282;2023-07-28T07:09:32;94271.97;;;20.91;72.92
9855;BME280;4966;48.112;9.282;2023-07-28T07:11:57;94271.38;;;21.07;72.71
9855;BME280;4966;48.112;9.282;2023-07-28T07:14:23;94285.28;;;20.99;72.30
9855;BME280;4966;48.112;9.282;2023-07-28T07:16:48;94282.94;;;20.98;73.83
9855;BME280;4966;48.112;9.282;2023-07-28T07:19:14;94292.13;;;20.91;73.96
9855;BME280;4966;48.112;9.282;2023-07-28T07:21:40;94286.03;;;21.03;73.67
9855;BME280;4966;48.112;9.282;2023-07-28T07:24:07;94277.22;;;21.12;75.27
9855;BME280;4966;48.112;9.282;2023-07-28T07:26:32;94284.97;;;21.24;74.83
9855;BME280;4966;48.112;9.282;2023-07-28T07:28:58;94288.38;;;21.36;75.29
9855;BME280;4966;48.112;9.282;2023-07-28T07:31:23;94281.81;;;21.53;73.31
9855;BME280;4966;48.112;9.282;2023-07-28T07:33:49;94284.41;;;21.06;74.84
9855;BME280;4966;48.112;9.282;2023-07-28T07:36:19;94287.16;;;21.37;74.66
9855;BME280;4966;48.112;9.282;2023-07-28T07:38:45;94290.44;;;21.28;73.02
9855;BME280;4966;48.112;9.282;2023-07-28T07:41:14;94292.41;;;21.31;72.78
9855;BME280;4966;48.112;9.282;2023-07-28T07:43:50;94295.41;;;22.18;69.91
9855;BME280;4966;48.112;9.282;2023-07-28T07:46:17;94286.75;;;22.40;70.91
9855;BME280;4966;48.112;9.282;2023-07-28T07:48:44;94291.75;;;22.01;69.44
9855;BME280;4966;48.112;9.282;2023-07-28T07:51:10;94299.19;;;21.23;72.24
9855;BME280;4966;48.112;9.282;2023-07-28T07:53:36;94299.44;;;20.71;75.02
9855;BME280;4966;48.112;9.282;2023-07-28T07:56:02;94295.84;;;21.08;75.04
9855;BME280;4966;48.112;9.282;2023-07-28T07:58:28;94304.41;;;20.87;76.74
9855;BME280;4966;48.112;9.282;2023-07-28T08:00:54;94305.41;;;21.61;74.09
9855;BME280;4966;48.112;9.282;2023-07-28T08:03:20;94306.66;;;21.57;74.04
9855;BME280;4966;48.112;9.282;2023-07-28T08:05:45;94304.22;;;21.62;70.87
9855;BME280;4966;48.112;9.282;2023-07-28T08:08:10;94313.09;;;21.77;70.86
9855;BME280;4966;48.112;9.282;2023-07-28T08:10:36;94312.63;;;22.06;69.44
9855;BME280;4966;48.112;9.282;2023-07-28T08:13:03;94306.00;;;22.00;70.10
9855;BME280;4966;48.112;9.282;2023-07-28T08:15:29;94299.94;;;22.76;67.84
9855;BME280;4966;48.112;9.282;2023-07-28T08:17:54;94296.03;;;22.93;64.61
9855;BME280;4966;48.112;9.282;2023-07-28T08:20:19;94307.06;;;22.33;67.40
9855;BME280;4966;48.112;9.282;2023-07-28T08:22:45;94300.72;;;22.76;64.66
9855;BME280;4966;48.112;9.282;2023-07-28T08:25:10;94304.16;;;22.40;67.64
9855;BME280;4966;48.112;9.282;2023-07-28T08:27:35;94314.84;;;22.15;67.12
9855;BME280;4966;48.112;9.282;2023-07-28T08:30:01;94314.84;;;22.15;67.26
9855;BME280;4966;48.112;9.282;2023-07-28T08:32:26;94314.16;;;22.11;67.30
9855;BME280;4966;48.112;9.282;2023-07-28T08:34:53;94308.00;;;21.99;69.36
9855;BME280;4966;48.112;9.282;2023-07-28T08:37:18;94307.84;;;22.34;67.24
9855;BME280;4966;48.112;9.282;2023-07-28T08:39:43;94308.16;;;22.59;67.21
9855;BME280;4966;48.112;9.282;2023-07-28T08:42:09;94316.59;;;22.32;66.44
9855;BME280;4966;48.112;9.282;2023-07-28T08:44:35;94304.03;;;22.24;66.94
9855;BME280;4966;48.112;9.282;2023-07-28T08:47:01;94299.66;;;22.70;66.60
9855;BME280;4966;48.112;9.282;2023-07-28T08:49:27;94300.31;;;22.78;65.74
9855;BME280;4966;48.112;9.282;2023-07-28T08:51:57;94294.41;;;22.76;65.19
9855;BME280;4966;48.112;9.282;2023-07-28T08:54:23;94300.91;;;23.45;64.00
9855;BME280;4966;48.112;9.282;2023-07-28T08:56:48;94295.41;;;22.85;63.57
9855;BME280;4966;48.112;9.282;2023-07-28T08:59:21;94298.25;;;23.22;62.15
9855;BME280;4966;48.112;9.282;2023-07-28T09:01:50;94301.97;;;23.88;62.19
9855;BME280;4966;48.112;9.282;2023-07-28T09:04:15;94302.59;;;23.59;61.54
9855;BME280;4966;48.112;9.282;2023-07-28T09:06:44;94302.94;;;23.25;62.76
9855;BME280;4966;48.112;9.282;2023-07-28T09:09:10;94301.44;;;23.93;60.01
9855;BME280;4966;48.112;9.282;2023-07-28T09:11:44;94289.97;;;23.91;59.01
9855;BME280;4966;48.112;9.282;2023-07-28T09:14:12;94299.78;;;24.45;57.73
9855;BME280;4966;48.112;9.282;2023-07-28T09:16:37;94301.50;;;24.38;57.81
9855;BME280;4966;48.112;9.282;2023-07-28T09:19:07;94299.84;;;24.57;57.88
9855;BME280;4966;48.112;9.282;2023-07-28T09:21:33;94296.84;;;24.81;57.95
9855;BME280;4966;48.112;9.282;2023-07-28T09:24:12;94298.63;;;24.88;56.89
9855;BME280;4966;48.112;9.282;2023-07-28T09:29:23;94291.25;;;26.03;52.91
9855;BME280;4966;48.112;9.282;2023-07-28T09:31:49;94299.25;;;26.14;52.86
9855;BME280;4966;48.112;9.282;2023-07-28T09:34:27;94293.59;;;25.79;52.22
9855;BME280;4966;48.112;9.282;2023-07-28T09:36:54;94291.50;;;25.96;52.23
9855;BME280;4966;48.112;9.282;2023-07-28T09:39:20;94286.22;;;26.11;52.89
9855;BME280;4966;48.112;9.282;2023-07-28T09:41:46;94294.53;;;25.21;53.97
9855;BME280;4966;48.112;9.282;2023-07-28T09:44:12;94290.03;;;25.79;52.45
9855;BME280;4966;48.112;9.282;2023-07-28T09:46:49;94292.69;;;25.82;51.94
9855;BME280;4966;48.112;9.282;2023-07-28T09:49:20;94286.66;;;26.09;52.58
9855;BME280;4966;48.112;9.282;2023-07-28T09:51:48;94286.16;;;25.89;52.77
9855;BME280;4966;48.112;9.282;2023-07-28T09:54:23;94286.66;;;26.09;50.01
9855;BME280;4966;48.112;9.282;2023-07-28T09:56:57;94286.88;;;26.98;50.35
9855;BME280;4966;48.112;9.282;2023-07-28T09:59:29;94282.13;;;27.29;47.51
9855;BME280;4966;48.112;9.282;2023-07-28T10:01:58;94278.50;;;27.20;45.95
9855;BME280;4966;48.112;9.282;2023-07-28T10:04:23;94280.56;;;27.50;45.39
9855;BME280;4966;48.112;9.282;2023-07-28T10:06:51;94279.25;;;26.76;46.77
9855;BME280;4966;48.112;9.282;2023-07-28T10:09:25;94285.31;;;26.75;45.69
9855;BME280;4966;48.112;9.282;2023-07-28T10:11:50;94277.13;;;26.80;44.64
9855;BME280;4966;48.112;9.282;2023-07-28T10:14:26;94283.63;;;26.99;45.31
9855;BME280;4966;48.112;9.282;2023-07-28T10:16:53;94285.41;;;27.28;44.59
9855;BME280;4966;48.112;9.282;2023-07-28T10:19:24;94281.75;;;27.18;45.13
9855;BME280;4966;48.112;9.282;2023-07-28T10:22:01;94294.63;;;26.59;44.78
9855;BME280;4966;48.112;9.282;2023-07-28T10:24:49;94289.44;;;27.58;44.83
9855;BME280;4966;48.112;9.282;2023-07-28T10:27:36;94291.94;;;27.34;44.16
9855;BME280;4966;48.112;9.282;2023-07-28T10:30:03;94296.56;;;27.28;44.36
9855;BME280;4966;48.112;9.282;2023-07-28T10:32:38;94291.09;;;27.24;43.62
9855;BME280;4966;48.112;9.282;2023-07-28T10:37:39;94303.56;;;27.86;43.46
9855;BME280;4966;48.112;9.282;2023-07-28T10:42:49;94299.16;;;27.22;43.08
9855;BME280;4966;48.112;9.282;2023-07-28T10:45:15;94302.97;;;27.15;43.78
9855;BME280;4966;48.112;9.282;2023-07-28T10:47:41;94297.19;;;27.54;43.05
9855;BME280;4966;48.112;9.282;2023-07-28T10:50:10;94292.53;;;28.41;44.13
9855;BME280;4966;48.112;9.282;2023-07-28T10:52:43;94304.13;;;28.80;42.08
9855;BME280;4966;48.112;9.282;2023-07-28T10:55:16;94302.28;;;28.18;41.55
9855;BME280;4966;48.112;9.282;2023-07-28T10:57:43;94303.63;;;27.20;42.66
9855;BME280;4966;48.112;9.282;2023-07-28T11:00:10;94298.84;;;27.20;43.44
9855;BME280;4966;48.112;9.282;2023-07-28T11:02:44;94293.22;;;26.98;43.34
9855;BME280;4966;48.112;9.282;2023-07-28T11:05:12;94296.31;;;27.13;42.97
9855;BME280;4966;48.112;9.282;2023-07-28T11:07:43;94301.84;;;26.91;43.54
9855;BME280;4966;48.112;9.282;2023-07-28T11:10:10;94298.63;;;27.36;43.65
9855;BME280;4966;48.112;9.282;2023-07-28T11:12:46;94298.00;;;27.32;43.63
9855;BME280;4966;48.112;9.282;2023-07-28T11:15:13;94290.28;;;27.77;42.53
9855;BME280;4966;48.112;9.282;2023-07-28T11:17:41;94297.25;;;28.04;41.61
9855;BME280;4966;48.112;9.282;2023-07-28T11:20:16;94289.06;;;27.78;41.95
9855;BME280;4966;48.112;9.282;2023-07-28T11:22:43;94287.94;;;28.47;40.77
9855;BME280;4966;48.112;9.282;2023-07-28T11:25:09;94284.00;;;28.35;41.60
9855;BME280;4966;48.112;9.282;2023-07-28T11:27:36;94284.13;;;28.32;40.38
9855;BME280;4966;48.112;9.282;2023-07-28T11:30:01;94279.63;;;28.34;40.60
9855;BME280;4966;48.112;9.282;2023-07-28T11:32:30;94280.09;;;28.24;40.15
9855;BME280;4966;48.112;9.282;2023-07-28T11:34:55;94281.69;;;27.62;42.40
9855;BME280;4966;48.112;9.282;2023-07-28T11:37:21;94283.91;;;28.08;40.76
9855;BME280;4966;48.112;9.282;2023-07-28T11:39:46;94280.63;;;28.77;39.59
9855;BME280;4966;48.112;9.282;2023-07-28T11:42:12;94286.16;;;28.31;39.49
9855;BME280;4966;48.112;9.282;2023-07-28T11:44:38;94284.22;;;28.59;39.37
9855;BME280;4966;48.112;9.282;2023-07-28T11:47:05;94284.78;;;27.86;40.70
9855;BME280;4966;48.112;9.282;2023-07-28T11:49:30;94287.00;;;27.69;41.21
9855;BME280;4966;48.112;9.282;2023-07-28T11:51:56;94287.59;;;27.33;40.80
9855;BME280;4966;48.112;9.282;2023-07-28T11:54:25;94294.56;;;26.71;42.09
9855;BME280;4966;48.112;9.282;2023-07-28T11:56:54;94300.00;;;26.40;42.35
9855;BME280;4966;48.112;9.282;2023-07-28T11:59:20;94304.03;;;26.26;42.53
9855;BME280;4966;48.112;9.282;2023-07-28T12:01:56;94298.91;;;26.25;43.40
9855;BME280;4966;48.112;9.282;2023-07-28T12:09:31;94281.94;;;27.02;42.11
9855;BME280;4966;48.112;9.282;2023-07-28T12:11:58;94284.44;;;27.53;42.74
9855;BME280;4966;48.112;9.282;2023-07-28T12:14:34;94290.06;;;27.62;41.35
9855;BME280;4966;48.112;9.282;2023-07-28T12:17:00;94281.84;;;28.49;41.24
9855;BME280;4966;48.112;9.282;2023-07-28T12:19:26;94283.88;;;28.48;40.33
9855;BME280;4966;48.112;9.282;2023-07-28T12:21:52;94281.13;;;29.13;39.59
9855;BME280;4966;48.112;9.282;2023-07-28T12:24:17;94273.47;;;29.32;39.22
9855;BME280;4966;48.112;9.282;2023-07-28T12:26:43;94275.22;;;28.06;40.33
9855;BME280;4966;48.112;9.282;2023-07-28T12:29:08;94283.31;;;28.13;40.54
9855;BME280;4966;48.112;9.282;2023-07-28T12:31:33;94282.66;;;28.77;40.82
9855;BME280;4966;48.112;9.282;2023-07-28T12:33:59;94276.59;;;29.24;40.05
9855;BME280;4966;48.112;9.282;2023-07-28T12:36:24;94285.75;;;28.60;39.69
9855;BME280;4966;48.112;9.282;2023-07-28T12:38:50;94280.00;;;28.46;39.54
9855;BME280;4966;48.112;9.282;2023-07-28T12:41:15;94278.50;;;28.23;39.93
9855;BME280;4966;48.112;9.282;2023-07-28T12:43:40;94282.03;;;27.64;40.54
9855;BME280;4966;48.112;9.282;2023-07-28T12:46:06;94277.09;;;28.09;39.55
9855;BME280;4966;48.112;9.282;2023-07-28T12:48:31;94277.84;;;28.59;40.49
9855;BME280;4966;48.112;9.282;2023-07-28T12:50:56;94276.91;;;28.80;40.52
9855;BME280;4966;48.112;9.282;2023-07-28T12:53:22;94279.28;;;29.61;38.24
9855;BME280;4966;48.112;9.282;2023-07-28T12:55:47;94276.50;;;30.37;37.17
9855;BME280;4966;48.112;9.282;2023-07-28T12:58:13;94275.25;;;31.40;34.79
9855;BME280;4966;48.112;9.282;2023-07-28T13:00:38;94276.75;;;31.11;35.94
9855;BME280;4966;48.112;9.282;2023-07-28T13:03:06;94280.00;;;31.64;35.21
9855;BME280;4966;48.112;9.282;2023-07-28T13:05:31;94283.38;;;31.68;33.01
9855;BME280;4966;48.112;9.282;2023-07-28T13:07:57;94287.88;;;31.60;34.42
9855;BME280;4966;48.112;9.282;2023-07-28T13:10:23;94286.41;;;30.47;37.26
9855;BME280;4966;48.112;9.282;2023-07-28T13:12:48;94284.50;;;30.78;35.40
9855;BME280;4966;48.112;9.282;2023-07-28T13:15:13;94290.59;;;28.69;38.79
9855;BME280;4966;48.112;9.282;2023-07-28T13:17:39;94282.19;;;29.15;38.38
9855;BME280;4966;48.112;9.282;2023-07-28T13:20:05;94293.56;;;29.02;38.26
9855;BME280;4966;48.112;9.282;2023-07-28T13:22:32;94293.41;;;28.78;38.51
9855;BME280;4966;48.112;9.282;2023-07-28T13:24:57;94297.47;;;28.18;38.41
9855;BME280;4966;48.112;9.282;2023-07-28T13:27:22;94293.09;;;28.17;38.33
9855;BME280;4966;48.112;9.282;2023-07-28T13:29:48;94298.19;;;28.00;37.83
9855;BME280;4966;48.112;9.282;2023-07-28T13:32:22;94296.16;;;27.70;39.15
9855;BME280;4966;48.112;9.282;2023-07-28T13:34:47;94296.00;;;27.95;39.46
9855;BME280;4966;48.112;9.282;2023-07-28T13:37:13;94298.22;;;27.47;39.71
9855;BME280;4966;48.112;9.282;2023-07-28T13:39:38;94295.28;;;27.51;38.62